sensor_id;sensor_type;location;lat;lon;timestamp;P1;durP1;ratioP1;P2;durP2;ratioP2
25962;SDS011;13760;52.588;13.406;2024-02-21T00:01:34;33.20;;;9.60;;
25962;SDS011;13760;52.588;13.406;2024-02-21T00:03:59;28.50;;;8.75;;
25962;SDS011;13760;52.588;13.406;2024-02-21T00:06:25;34.67;;;9.35;;
25962;SDS011;13760;52.588;13.406;2024-02-21T00:08:51;25.48;;;8.20;;
25962;SDS011;13760;52.588;13.406;2024-02-21T00:11:16;27.33;;;8.45;;
25962;SDS011;13760;52.588;13.406;2024-02-21T00:13:42;32.10;;;9.27;;
25962;SDS011;13760;52.588;13.406;2024-02-21T00:16:07;26.25;;;8.07;;
25962;SDS011;13760;52.588;13.406;2024-02-21T00:18:33;27.27;;;8.38;;
25962;SDS011;13760;52.588;13.406;2024-02-21T00:20:58;29.50;;;9.07;;
25962;SDS011;13760;52.588;13.406;2024-02-21T00:23:26;31.88;;;8.32;;
25962;SDS011;13760;52.588;13.406;2024-02-21T00:25:52;34.08;;;8.43;;
25962;SDS011;13760;52.588;13.406;2024-02-21T00:28:18;32.35;;;8.35;;
25962;SDS011;13760;52.588;13.406;2024-02-21T00:30:43;32.88;;;8.05;;
25962;SDS011;13760;52.588;13.406;2024-02-21T00:33:09;34.58;;;8.27;;
25962;SDS011;13760;52.588;13.406;2024-02-21T00:35:34;28.90;;;8.02;;
25962;SDS011;13760;52.588;13.406;2024-02-21T00:38:00;23.75;;;7.65;;
25962;SDS011;13760;52.588;13.406;2024-02-21T00:40:26;34.42;;;8.32;;
25962;SDS011;13760;52.588;13.406;2024-02-21T00:42:51;26.73;;;7.45;;
25962;SDS011;13760;52.588;13.406;2024-02-21T00:45:17;29.27;;;8.27;;
25962;SDS011;13760;52.588;13.406;2024-02-21T00:47:42;27.80;;;7.80;;
25962;SDS011;13760;52.588;13.406;2024-02-21T00:50:08;26.20;;;7.80;;
25962;SDS011;13760;52.588;13.406;2024-02-21T00:52:34;32.70;;;8.27;;
25962;SDS011;13760;52.588;13.406;2024-02-21T00:55:00;33.25;;;7.47;;
25962;SDS011;13760;52.588;13.406;2024-02-21T00:57:25;25.90;;;8.10;;
25962;SDS011;13760;52.588;13.406;2024-02-21T00:59:51;28.88;;;7.72;;
25962;SDS011;13760;52.588;13.406;2024-02-21T01:02:17;40.03;;;7.13;;
25962;SDS011;13760;52.588;13.406;2024-02-21T01:04:42;27.30;;;7.70;;
25962;SDS011;13760;52.588;13.406;2024-02-21T01:07:08;27.42;;;6.65;;
25962;SDS011;13760;52.588;13.406;2024-02-21T01:09:33;27.25;;;6.93;;
25962;SDS011;13760;52.588;13.406;2024-02-21T01:11:59;21.80;;;7.40;;
25962;SDS011;13760;52.588;13.406;2024-02-21T01:14:24;26.70;;;7.47;;
25962;SDS011;13760;52.588;13.406;2024-02-21T01:16:50;26.95;;;6.93;;
25962;SDS011;13760;52.588;13.406;2024-02-21T01:19:15;30.83;;;7.20;;
25962;SDS011;13760;52.588;13.406;2024-02-21T01:21:41;27.42;;;6.75;;
25962;SDS011;13760;52.588;13.406;2024-02-21T01:24:06;30.85;;;7.35;;
25962;SDS011;13760;52.588;13.406;2024-02-21T01:26:32;28.15;;;6.85;;
25962;SDS011;13760;52.588;13.406;2024-02-21T01:28:57;31.70;;;7.60;;
25962;SDS011;13760;52.588;13.406;2024-02-21T01:31:23;24.35;;;7.18;;
25962;SDS011;13760;52.588;13.406;2024-02-21T01:33:49;30.88;;;6.47;;
25962;SDS011;13760;52.588;13.406;2024-02-21T01:36:14;24.05;;;6.80;;
25962;SDS011;13760;52.588;13.406;2024-02-21T01:38:40;22.40;;;6.18;;
25962;SDS011;13760;52.588;13.406;2024-02-21T01:41:05;30.90;;;7.35;;
25962;SDS011;13760;52.588;13.406;2024-02-21T01:43:31;25.80;;;6.70;;
25962;SDS011;13760;52.588;13.406;2024-02-21T01:45:56;23.77;;;7.13;;
25962;SDS011;13760;52.588;13.406;2024-02-21T01:48:22;31.70;;;7.13;;
25962;SDS011;13760;52.588;13.406;2024-02-21T01:50:52;28.52;;;6.57;;
25962;SDS011;13760;52.588;13.406;2024-02-21T01:53:20;29.33;;;6.93;;
25962;SDS011;13760;52.588;13.406;2024-02-21T01:55:48;30.42;;;6.80;;
25962;SDS011;13760;52.588;13.406;2024-02-21T01:58:14;27.30;;;7.13;;
25962;SDS011;13760;52.588;13.406;2024-02-21T02:00:41;20.70;;;5.70;;
25962;SDS011;13760;52.588;13.406;2024-02-21T02:03:11;22.58;;;6.47;;
25962;SDS011;13760;52.588;13.406;2024-02-21T02:05:42;25.58;;;6.47;;
25962;SDS011;13760;52.588;13.406;2024-02-21T02:08:09;26.55;;;6.75;;
25962;SDS011;13760;52.588;13.406;2024-02-21T02:10:35;21.80;;;6.50;;
25962;SDS011;13760;52.588;13.406;2024-02-21T02:13:02;26.35;;;6.30;;
25962;SDS011;13760;52.588;13.406;2024-02-21T02:15:37;23.00;;;6.25;;
25962;SDS011;13760;52.588;13.406;2024-02-21T02:18:03;30.85;;;7.18;;
25962;SDS011;13760;52.588;13.406;2024-02-21T02:20:29;23.08;;;6.90;;
25962;SDS011;13760;52.588;13.406;2024-02-21T02:22:54;28.20;;;7.55;;
25962;SDS011;13760;52.588;13.406;2024-02-21T02:25:20;23.77;;;6.97;;
25962;SDS011;13760;52.588;13.406;2024-02-21T02:27:46;28.73;;;7.07;;
25962;SDS011;13760;52.588;13.406;2024-02-21T02:30:11;30.50;;;7.40;;
25962;SDS011;13760;52.588;13.406;2024-02-21T02:32:37;25.63;;;7.53;;
25962;SDS011;13760;52.588;13.406;2024-02-21T02:35:03;26.75;;;7.57;;
25962;SDS011;13760;52.588;13.406;2024-02-21T02:37:29;22.70;;;7.38;;
25962;SDS011;13760;52.588;13.406;2024-02-21T02:39:54;33.95;;;8.60;;
25962;SDS011;13760;52.588;13.406;2024-02-21T02:42:20;33.17;;;8.30;;
25962;SDS011;13760;52.588;13.406;2024-02-21T02:44:45;35.33;;;8.23;;
25962;SDS011;13760;52.588;13.406;2024-02-21T02:47:11;32.58;;;7.75;;
25962;SDS011;13760;52.588;13.406;2024-02-21T02:49:37;29.15;;;8.68;;
25962;SDS011;13760;52.588;13.406;2024-02-21T02:52:02;30.23;;;9.00;;
25962;SDS011;13760;52.588;13.406;2024-02-21T02:54:28;32.85;;;8.45;;
25962;SDS011;13760;52.588;13.406;2024-02-21T02:56:54;35.90;;;9.23;;
25962;SDS011;13760;52.588;13.406;2024-02-21T02:59:19;32.15;;;9.15;;
25962;SDS011;13760;52.588;13.406;2024-02-21T03:01:45;26.65;;;7.95;;
25962;SDS011;13760;52.588;13.406;2024-02-21T03:04:10;29.10;;;8.80;;
25962;SDS011;13760;52.588;13.406;2024-02-21T03:06:36;28.50;;;9.23;;
25962;SDS011;13760;52.588;13.406;2024-02-21T03:09:01;28.38;;;9.25;;
25962;SDS011;13760;52.588;13.406;2024-02-21T03:11:32;32.10;;;10.15;;
25962;SDS011;13760;52.588;13.406;2024-02-21T03:13:58;35.65;;;10.18;;
25962;SDS011;13760;52.588;13.406;2024-02-21T03:16:23;37.53;;;9.57;;
25962;SDS011;13760;52.588;13.406;2024-02-21T03:18:49;36.78;;;10.68;;
25962;SDS011;13760;52.588;13.406;2024-02-21T03:21:15;34.30;;;10.23;;
25962;SDS011;13760;52.588;13.406;2024-02-21T03:23:40;38.60;;;10.77;;
25962;SDS011;13760;52.588;13.406;2024-02-21T03:26:06;35.03;;;10.30;;
25962;SDS011;13760;52.588;13.406;2024-02-21T03:28:32;38.30;;;11.07;;
25962;SDS011;13760;52.588;13.406;2024-02-21T03:30:57;38.20;;;10.43;;
25962;SDS011;13760;52.588;13.406;2024-02-21T03:33:23;38.33;;;11.25;;
25962;SDS011;13760;52.588;13.406;2024-02-21T03:35:49;39.05;;;11.50;;
25962;SDS011;13760;52.588;13.406;2024-02-21T03:38:14;50.60;;;11.45;;
25962;SDS011;13760;52.588;13.406;2024-02-21T03:40:40;36.92;;;11.65;;
25962;SDS011;13760;52.588;13.406;2024-02-21T03:43:05;40.78;;;11.65;;
25962;SDS011;13760;52.588;13.406;2024-02-21T03:45:31;39.40;;;11.95;;
25962;SDS011;13760;52.588;13.406;2024-02-21T03:47:56;45.78;;;12.90;;
25962;SDS011;13760;52.588;13.406;2024-02-21T03:50:22;46.45;;;12.82;;
25962;SDS011;13760;52.588;13.406;2024-02-21T03:52:47;37.20;;;13.32;;
25962;SDS011;13760;52.588;13.406;2024-02-21T03:55:13;47.30;;;13.95;;
25962;SDS011;13760;52.588;13.406;2024-02-21T03:57:38;43.47;;;13.05;;
25962;SDS011;13760;52.588;13.406;2024-02-21T04:00:04;39.30;;;13.20;;
25962;SDS011;13760;52.588;13.406;2024-02-21T04:02:35;41.80;;;12.68;;
25962;SDS011;13760;52.588;13.406;2024-02-21T04:05:01;38.92;;;14.98;;
25962;SDS011;13760;52.588;13.406;2024-02-21T04:07:26;42.92;;;14.07;;
25962;SDS011;13760;52.588;13.406;2024-02-21T04:09:52;37.03;;;14.45;;
25962;SDS011;13760;52.588;13.406;2024-02-21T04:12:18;43.55;;;13.85;;
25962;SDS011;13760;52.588;13.406;2024-02-21T04:14:43;43.35;;;14.15;;
25962;SDS011;13760;52.588;13.406;2024-02-21T04:17:09;52.53;;;14.38;;
25962;SDS011;13760;52.588;13.406;2024-02-21T04:19:34;50.70;;;14.95;;
25962;SDS011;13760;52.588;13.406;2024-02-21T04:22:00;47.08;;;14.90;;
25962;SDS011;13760;52.588;13.406;2024-02-21T04:24:25;53.22;;;15.18;;
25962;SDS011;13760;52.588;13.406;2024-02-21T04:26:51;45.00;;;13.80;;
25962;SDS011;13760;52.588;13.406;2024-02-21T04:29:16;46.25;;;14.70;;
25962;SDS011;13760;52.588;13.406;2024-02-21T04:31:42;54.42;;;15.27;;
25962;SDS011;13760;52.588;13.406;2024-02-21T04:34:08;48.40;;;15.35;;
25962;SDS011;13760;52.588;13.406;2024-02-21T04:36:33;42.45;;;14.68;;
25962;SDS011;13760;52.588;13.406;2024-02-21T04:39:00;49.40;;;14.98;;
25962;SDS011;13760;52.588;13.406;2024-02-21T04:41:29;45.38;;;14.40;;
25962;SDS011;13760;52.588;13.406;2024-02-21T04:43:54;44.15;;;15.05;;
25962;SDS011;13760;52.588;13.406;2024-02-21T04:46:20;46.72;;;14.90;;
25962;SDS011;13760;52.588;13.406;2024-02-21T04:48:45;48.85;;;14.70;;
25962;SDS011;13760;52.588;13.406;2024-02-21T04:51:20;42.53;;;14.50;;
25962;SDS011;13760;52.588;13.406;2024-02-21T04:53:49;46.70;;;15.57;;
25962;SDS011;13760;52.588;13.406;2024-02-21T04:56:15;41.85;;;15.15;;
25962;SDS011;13760;52.588;13.406;2024-02-21T04:58:40;55.13;;;15.75;;
25962;SDS011;13760;52.588;13.406;2024-02-21T05:01:06;55.15;;;15.68;;
25962;SDS011;13760;52.588;13.406;2024-02-21T05:03:32;52.78;;;15.35;;
25962;SDS011;13760;52.588;13.406;2024-02-21T05:05:59;49.70;;;15.60;;
25962;SDS011;13760;52.588;13.406;2024-02-21T05:08:26;43.55;;;14.35;;
25962;SDS011;13760;52.588;13.406;2024-02-21T05:10:54;43.15;;;13.65;;
25962;SDS011;13760;52.588;13.406;2024-02-21T05:13:20;42.38;;;14.55;;
25962;SDS011;13760;52.588;13.406;2024-02-21T05:15:45;42.03;;;14.32;;
25962;SDS011;13760;52.588;13.406;2024-02-21T05:18:11;44.53;;;15.10;;
25962;SDS011;13760;52.588;13.406;2024-02-21T05:20:36;45.03;;;14.23;;
25962;SDS011;13760;52.588;13.406;2024-02-21T05:23:02;45.25;;;15.27;;
25962;SDS011;13760;52.588;13.406;2024-02-21T05:25:28;40.38;;;14.77;;
25962;SDS011;13760;52.588;13.406;2024-02-21T05:27:55;43.85;;;14.80;;
25962;SDS011;13760;52.588;13.406;2024-02-21T05:30:32;38.08;;;15.23;;
25962;SDS011;13760;52.588;13.406;2024-02-21T05:33:06;41.03;;;14.75;;
25962;SDS011;13760;52.588;13.406;2024-02-21T05:35:32;45.58;;;14.95;;
25962;SDS011;13760;52.588;13.406;2024-02-21T05:37:57;45.10;;;14.70;;
25962;SDS011;13760;52.588;13.406;2024-02-21T05:40:26;40.97;;;15.93;;
25962;SDS011;13760;52.588;13.406;2024-02-21T05:43:03;44.17;;;15.52;;
25962;SDS011;13760;52.588;13.406;2024-02-21T05:45:29;38.47;;;15.25;;
25962;SDS011;13760;52.588;13.406;2024-02-21T05:47:54;48.20;;;16.17;;
25962;SDS011;13760;52.588;13.406;2024-02-21T05:50:22;52.45;;;16.40;;
25962;SDS011;13760;52.588;13.406;2024-02-21T05:52:48;45.13;;;16.00;;
25962;SDS011;13760;52.588;13.406;2024-02-21T05:55:17;47.95;;;16.17;;
25962;SDS011;13760;52.588;13.406;2024-02-21T05:57:43;45.67;;;15.48;;
25962;SDS011;13760;52.588;13.406;2024-02-21T06:00:09;50.65;;;15.57;;
25962;SDS011;13760;52.588;13.406;2024-02-21T06:02:35;43.03;;;15.55;;
25962;SDS011;13760;52.588;13.406;2024-02-21T06:05:00;43.05;;;15.57;;
25962;SDS011;13760;52.588;13.406;2024-02-21T06:07:26;44.20;;;15.40;;
25962;SDS011;13760;52.588;13.406;2024-02-21T06:09:51;47.03;;;15.23;;
25962;SDS011;13760;52.588;13.406;2024-02-21T06:12:17;50.42;;;16.00;;
25962;SDS011;13760;52.588;13.406;2024-02-21T06:14:42;35.30;;;14.90;;
25962;SDS011;13760;52.588;13.406;2024-02-21T06:17:08;40.75;;;14.90;;
25962;SDS011;13760;52.588;13.406;2024-02-21T06:19:33;44.30;;;15.77;;
25962;SDS011;13760;52.588;13.406;2024-02-21T06:21:59;43.63;;;16.40;;
25962;SDS011;13760;52.588;13.406;2024-02-21T06:24:24;46.97;;;15.98;;
25962;SDS011;13760;52.588;13.406;2024-02-21T06:26:50;43.00;;;15.70;;
25962;SDS011;13760;52.588;13.406;2024-02-21T06:29:15;43.13;;;15.88;;
25962;SDS011;13760;52.588;13.406;2024-02-21T06:31:41;46.92;;;15.93;;
25962;SDS011;13760;52.588;13.406;2024-02-21T06:34:07;43.95;;;15.60;;
25962;SDS011;13760;52.588;13.406;2024-02-21T06:36:32;43.00;;;16.35;;
25962;SDS011;13760;52.588;13.406;2024-02-21T06:38:58;42.30;;;16.08;;
25962;SDS011;13760;52.588;13.406;2024-02-21T06:41:24;42.45;;;16.17;;
25962;SDS011;13760;52.588;13.406;2024-02-21T06:43:50;39.88;;;15.75;;
25962;SDS011;13760;52.588;13.406;2024-02-21T06:46:22;40.72;;;15.48;;
25962;SDS011;13760;52.588;13.406;2024-02-21T06:48:53;33.47;;;15.00;;
25962;SDS011;13760;52.588;13.406;2024-02-21T06:51:19;34.90;;;15.68;;
25962;SDS011;13760;52.588;13.406;2024-02-21T06:53:44;37.17;;;15.57;;
25962;SDS011;13760;52.588;13.406;2024-02-21T06:56:10;36.70;;;15.63;;
25962;SDS011;13760;52.588;13.406;2024-02-21T06:58:35;35.08;;;14.60;;
25962;SDS011;13760;52.588;13.406;2024-02-21T07:01:01;39.88;;;15.23;;
25962;SDS011;13760;52.588;13.406;2024-02-21T07:03:27;35.25;;;15.38;;
25962;SDS011;13760;52.588;13.406;2024-02-21T07:05:52;35.22;;;14.65;;
25962;SDS011;13760;52.588;13.406;2024-02-21T07:08:18;37.90;;;15.18;;
25962;SDS011;13760;52.588;13.406;2024-02-21T07:10:43;37.20;;;15.07;;
25962;SDS011;13760;52.588;13.406;2024-02-21T07:13:09;38.60;;;15.82;;
25962;SDS011;13760;52.588;13.406;2024-02-21T07:15:35;41.35;;;15.20;;
25962;SDS011;13760;52.588;13.406;2024-02-21T07:18:02;41.17;;;15.07;;
25962;SDS011;13760;52.588;13.406;2024-02-21T07:20:28;36.50;;;15.48;;
25962;SDS011;13760;52.588;13.406;2024-02-21T07:22:54;39.97;;;15.07;;
25962;SDS011;13760;52.588;13.406;2024-02-21T07:25:20;35.08;;;15.52;;
25962;SDS011;13760;52.588;13.406;2024-02-21T07:27:52;30.52;;;15.20;;
25962;SDS011;13760;52.588;13.406;2024-02-21T07:30:22;36.70;;;15.13;;
25962;SDS011;13760;52.588;13.406;2024-02-21T07:32:50;34.35;;;14.95;;
25962;SDS011;13760;52.588;13.406;2024-02-21T07:35:17;31.90;;;14.85;;
25962;SDS011;13760;52.588;13.406;2024-02-21T07:37:43;34.45;;;14.68;;
25962;SDS011;13760;52.588;13.406;2024-02-21T07:40:12;31.73;;;15.07;;
25962;SDS011;13760;52.588;13.406;2024-02-21T07:42:38;32.72;;;14.80;;
25962;SDS011;13760;52.588;13.406;2024-02-21T07:45:04;34.65;;;14.50;;
25962;SDS011;13760;52.588;13.406;2024-02-21T07:47:29;34.22;;;14.50;;
25962;SDS011;13760;52.588;13.406;2024-02-21T07:49:55;29.27;;;14.02;;
25962;SDS011;13760;52.588;13.406;2024-02-21T07:52:21;26.08;;;13.07;;
25962;SDS011;13760;52.588;13.406;2024-02-21T07:54:46;24.50;;;12.90;;
25962;SDS011;13760;52.588;13.406;2024-02-21T07:57:12;29.92;;;13.45;;
25962;SDS011;13760;52.588;13.406;2024-02-21T07:59:37;26.80;;;12.65;;
25962;SDS011;13760;52.588;13.406;2024-02-21T08:02:03;29.73;;;12.40;;
25962;SDS011;13760;52.588;13.406;2024-02-21T08:04:31;33.55;;;12.80;;
25962;SDS011;13760;52.588;13.406;2024-02-21T08:06:57;25.10;;;12.45;;
25962;SDS011;13760;52.588;13.406;2024-02-21T08:09:26;27.10;;;12.38;;
25962;SDS011;13760;52.588;13.406;2024-02-21T08:11:51;30.90;;;12.73;;
25962;SDS011;13760;52.588;13.406;2024-02-21T08:14:17;31.30;;;12.23;;
25962;SDS011;13760;52.588;13.406;2024-02-21T08:16:43;28.92;;;12.38;;
25962;SDS011;13760;52.588;13.406;2024-02-21T08:19:08;29.88;;;12.88;;
25962;SDS011;13760;52.588;13.406;2024-02-21T08:21:35;30.90;;;12.45;;
25962;SDS011;13760;52.588;13.406;2024-02-21T08:24:01;29.08;;;12.23;;
25962;SDS011;13760;52.588;13.406;2024-02-21T08:26:26;28.55;;;12.65;;
25962;SDS011;13760;52.588;13.406;2024-02-21T08:28:55;26.98;;;11.55;;
25962;SDS011;13760;52.588;13.406;2024-02-21T08:31:23;32.00;;;13.70;;
25962;SDS011;13760;52.588;13.406;2024-02-21T08:33:53;18.00;;;10.20;;
25962;SDS011;13760;52.588;13.406;2024-02-21T08:36:19;34.35;;;13.18;;
25962;SDS011;13760;52.588;13.406;2024-02-21T08:38:45;26.02;;;13.10;;
25962;SDS011;13760;52.588;13.406;2024-02-21T08:41:10;29.88;;;13.27;;
25962;SDS011;13760;52.588;13.406;2024-02-21T08:43:37;31.92;;;13.85;;
25962;SDS011;13760;52.588;13.406;2024-02-21T08:46:02;28.23;;;12.88;;
25962;SDS011;13760;52.588;13.406;2024-02-21T08:48:28;27.20;;;12.80;;
25962;SDS011;13760;52.588;13.406;2024-02-21T08:50:54;29.35;;;12.73;;
25962;SDS011;13760;52.588;13.406;2024-02-21T08:53:20;30.88;;;13.23;;
25962;SDS011;13760;52.588;13.406;2024-02-21T08:55:45;28.90;;;13.90;;
25962;SDS011;13760;52.588;13.406;2024-02-21T08:58:11;28.90;;;12.57;;
25962;SDS011;13760;52.588;13.406;2024-02-21T09:00:37;27.90;;;13.20;;
25962;SDS011;13760;52.588;13.406;2024-02-21T09:03:03;29.77;;;13.30;;
25962;SDS011;13760;52.588;13.406;2024-02-21T09:05:29;34.67;;;14.40;;
25962;SDS011;13760;52.588;13.406;2024-02-21T09:07:54;32.25;;;14.32;;
25962;SDS011;13760;52.588;13.406;2024-02-21T09:10:20;34.35;;;13.48;;
25962;SDS011;13760;52.588;13.406;2024-02-21T09:12:46;27.05;;;12.90;;
25962;SDS011;13760;52.588;13.406;2024-02-21T09:15:12;33.15;;;14.52;;
25962;SDS011;13760;52.588;13.406;2024-02-21T09:17:38;28.20;;;13.40;;
25962;SDS011;13760;52.588;13.406;2024-02-21T09:20:04;29.90;;;14.98;;
25962;SDS011;13760;52.588;13.406;2024-02-21T09:22:31;29.58;;;14.05;;
25962;SDS011;13760;52.588;13.406;2024-02-21T09:24:59;30.48;;;13.48;;
25962;SDS011;13760;52.588;13.406;2024-02-21T09:27:25;29.02;;;14.32;;
25962;SDS011;13760;52.588;13.406;2024-02-21T09:29:50;27.88;;;13.95;;
25962;SDS011;13760;52.588;13.406;2024-02-21T09:32:16;30.52;;;14.32;;
25962;SDS011;13760;52.588;13.406;2024-02-21T09:34:44;29.33;;;14.18;;
25962;SDS011;13760;52.588;13.406;2024-02-21T09:37:10;25.25;;;14.40;;
25962;SDS011;13760;52.588;13.406;2024-02-21T09:39:35;29.10;;;15.27;;
25962;SDS011;13760;52.588;13.406;2024-02-21T09:42:03;30.70;;;14.40;;
25962;SDS011;13760;52.588;13.406;2024-02-21T09:44:38;31.13;;;14.65;;
25962;SDS011;13760;52.588;13.406;2024-02-21T09:47:12;28.50;;;14.80;;
25962;SDS011;13760;52.588;13.406;2024-02-21T09:49:59;27.95;;;14.43;;
25962;SDS011;13760;52.588;13.406;2024-02-21T09:52:26;28.17;;;14.50;;
25962;SDS011;13760;52.588;13.406;2024-02-21T09:54:52;26.52;;;14.18;;
25962;SDS011;13760;52.588;13.406;2024-02-21T09:57:18;33.42;;;14.95;;
25962;SDS011;13760;52.588;13.406;2024-02-21T09:59:45;29.52;;;15.20;;
25962;SDS011;13760;52.588;13.406;2024-02-21T10:02:11;29.92;;;15.45;;
25962;SDS011;13760;52.588;13.406;2024-02-21T10:04:37;27.63;;;14.73;;
25962;SDS011;13760;52.588;13.406;2024-02-21T10:07:05;30.95;;;14.23;;
25962;SDS011;13760;52.588;13.406;2024-02-21T10:09:30;24.35;;;13.70;;
25962;SDS011;13760;52.588;13.406;2024-02-21T10:12:11;34.60;;;14.55;;
25962;SDS011;13760;52.588;13.406;2024-02-21T10:14:37;29.00;;;14.68;;
25962;SDS011;13760;52.588;13.406;2024-02-21T10:17:03;32.20;;;15.38;;
25962;SDS011;13760;52.588;13.406;2024-02-21T10:19:30;28.80;;;14.35;;
25962;SDS011;13760;52.588;13.406;2024-02-21T10:22:03;22.25;;;13.20;;
25962;SDS011;13760;52.588;13.406;2024-02-21T10:24:35;28.27;;;13.23;;
25962;SDS011;13760;52.588;13.406;2024-02-21T10:27:03;28.20;;;14.57;;
25962;SDS011;13760;52.588;13.406;2024-02-21T10:29:33;29.37;;;13.07;;
25962;SDS011;13760;52.588;13.406;2024-02-21T10:32:11;33.30;;;13.90;;
25962;SDS011;13760;52.588;13.406;2024-02-21T10:34:39;27.60;;;13.98;;
25962;SDS011;13760;52.588;13.406;2024-02-21T10:37:06;23.90;;;13.07;;
25962;SDS011;13760;52.588;13.406;2024-02-21T10:39:34;20.52;;;12.00;;
25962;SDS011;13760;52.588;13.406;2024-02-21T10:42:04;25.10;;;12.73;;
25962;SDS011;13760;52.588;13.406;2024-02-21T10:44:30;23.75;;;11.85;;
25962;SDS011;13760;52.588;13.406;2024-02-21T10:46:57;21.45;;;12.35;;
25962;SDS011;13760;52.588;13.406;2024-02-21T10:49:24;20.70;;;12.77;;
25962;SDS011;13760;52.588;13.406;2024-02-21T10:51:53;24.92;;;12.93;;
25962;SDS011;13760;52.588;13.406;2024-02-21T10:57:03;25.20;;;12.60;;
25962;SDS011;13760;52.588;13.406;2024-02-21T10:59:30;23.77;;;11.90;;
25962;SDS011;13760;52.588;13.406;2024-02-21T11:01:57;25.00;;;11.82;;
25962;SDS011;13760;52.588;13.406;2024-02-21T11:04:22;19.60;;;12.20;;
25962;SDS011;13760;52.588;13.406;2024-02-21T11:06:49;23.58;;;11.55;;
25962;SDS011;13760;52.588;13.406;2024-02-21T11:09:15;18.50;;;11.68;;
25962;SDS011;13760;52.588;13.406;2024-02-21T11:11:42;23.33;;;12.02;;
25962;SDS011;13760;52.588;13.406;2024-02-21T11:14:09;20.08;;;11.80;;
25962;SDS011;13760;52.588;13.406;2024-02-21T11:16:39;17.17;;;11.18;;
25962;SDS011;13760;52.588;13.406;2024-02-21T11:19:07;24.30;;;11.73;;
25962;SDS011;13760;52.588;13.406;2024-02-21T11:21:34;21.70;;;11.57;;
25962;SDS011;13760;52.588;13.406;2024-02-21T11:24:03;23.90;;;12.00;;
25962;SDS011;13760;52.588;13.406;2024-02-21T11:26:30;17.05;;;11.23;;
25962;SDS011;13760;52.588;13.406;2024-02-21T11:29:01;23.02;;;11.32;;
25962;SDS011;13760;52.588;13.406;2024-02-21T11:31:38;21.30;;;11.13;;
25962;SDS011;13760;52.588;13.406;2024-02-21T11:34:05;22.40;;;11.10;;
25962;SDS011;13760;52.588;13.406;2024-02-21T11:36:34;19.70;;;11.07;;
25962;SDS011;13760;52.588;13.406;2024-02-21T11:39:05;22.70;;;11.10;;
25962;SDS011;13760;52.588;13.406;2024-02-21T11:41:31;21.15;;;11.43;;
25962;SDS011;13760;52.588;13.406;2024-02-21T11:43:57;15.35;;;10.43;;
25962;SDS011;13760;52.588;13.406;2024-02-21T11:46:22;16.48;;;10.13;;
25962;SDS011;13760;52.588;13.406;2024-02-21T11:48:48;20.23;;;10.18;;
25962;SDS011;13760;52.588;13.406;2024-02-21T11:51:24;18.70;;;9.52;;
25962;SDS011;13760;52.588;13.406;2024-02-21T11:53:51;18.35;;;9.68;;
25962;SDS011;13760;52.588;13.406;2024-02-21T11:56:17;14.20;;;8.63;;
25962;SDS011;13760;52.588;13.406;2024-02-21T11:58:44;12.10;;;7.80;;
25962;SDS011;13760;52.588;13.406;2024-02-21T12:01:11;13.25;;;7.82;;
25962;SDS011;13760;52.588;13.406;2024-02-21T12:03:36;12.40;;;7.68;;
25962;SDS011;13760;52.588;13.406;2024-02-21T12:06:02;15.13;;;7.90;;
25962;SDS011;13760;52.588;13.406;2024-02-21T12:08:40;11.90;;;6.97;;
25962;SDS011;13760;52.588;13.406;2024-02-21T12:11:17;15.77;;;8.50;;
25962;SDS011;13760;52.588;13.406;2024-02-21T12:13:59;12.13;;;7.40;;
25962;SDS011;13760;52.588;13.406;2024-02-21T12:16:29;13.63;;;7.40;;
25962;SDS011;13760;52.588;13.406;2024-02-21T12:18:56;14.02;;;7.35;;
25962;SDS011;13760;52.588;13.406;2024-02-21T12:21:25;15.48;;;6.88;;
25962;SDS011;13760;52.588;13.406;2024-02-21T12:26:42;11.32;;;6.50;;
25962;SDS011;13760;52.588;13.406;2024-02-21T12:29:07;15.30;;;6.10;;
25962;SDS011;13760;52.588;13.406;2024-02-21T12:31:36;13.63;;;6.07;;
25962;SDS011;13760;52.588;13.406;2024-02-21T12:34:03;12.13;;;6.25;;
25962;SDS011;13760;52.588;13.406;2024-02-21T12:36:29;12.50;;;6.55;;
25962;SDS011;13760;52.588;13.406;2024-02-21T12:38:56;9.50;;;5.70;;
25962;SDS011;13760;52.588;13.406;2024-02-21T12:41:21;12.85;;;6.60;;
25962;SDS011;13760;52.588;13.406;2024-02-21T12:43:47;15.35;;;6.60;;
25962;SDS011;13760;52.588;13.406;2024-02-21T12:46:12;11.88;;;6.30;;
25962;SDS011;13760;52.588;13.406;2024-02-21T12:48:38;9.30;;;5.68;;
25962;SDS011;13760;52.588;13.406;2024-02-21T12:51:04;11.32;;;5.90;;
25962;SDS011;13760;52.588;13.406;2024-02-21T12:53:30;11.93;;;5.57;;
25962;SDS011;13760;52.588;13.406;2024-02-21T12:55:56;10.82;;;5.15;;
25962;SDS011;13760;52.588;13.406;2024-02-21T12:58:21;10.32;;;5.07;;
25962;SDS011;13760;52.588;13.406;2024-02-21T13:00:47;10.95;;;5.15;;
25962;SDS011;13760;52.588;13.406;2024-02-21T13:03:14;8.57;;;4.70;;
25962;SDS011;13760;52.588;13.406;2024-02-21T13:05:39;8.00;;;4.45;;
25962;SDS011;13760;52.588;13.406;2024-02-21T13:08:14;8.40;;;4.07;;
25962;SDS011;13760;52.588;13.406;2024-02-21T13:10:39;12.57;;;4.90;;
25962;SDS011;13760;52.588;13.406;2024-02-21T13:13:05;8.95;;;4.40;;
25962;SDS011;13760;52.588;13.406;2024-02-21T13:15:30;9.88;;;4.63;;
25962;SDS011;13760;52.588;13.406;2024-02-21T13:17:56;7.93;;;4.13;;
25962;SDS011;13760;52.588;13.406;2024-02-21T13:20:25;6.47;;;4.00;;
25962;SDS011;13760;52.588;13.406;2024-02-21T13:22:52;8.75;;;4.60;;
25962;SDS011;13760;52.588;13.406;2024-02-21T13:25:17;7.53;;;3.90;;
25962;SDS011;13760;52.588;13.406;2024-02-21T13:27:45;7.90;;;4.72;;
25962;SDS011;13760;52.588;13.406;2024-02-21T13:30:11;10.70;;;4.10;;
25962;SDS011;13760;52.588;13.406;2024-02-21T13:32:37;10.77;;;4.75;;
25962;SDS011;13760;52.588;13.406;2024-02-21T13:35:03;10.13;;;4.80;;
25962;SDS011;13760;52.588;13.406;2024-02-21T13:37:29;9.63;;;4.68;;
25962;SDS011;13760;52.588;13.406;2024-02-21T13:39:54;9.05;;;5.13;;
25962;SDS011;13760;52.588;13.406;2024-02-21T13:42:20;11.27;;;5.20;;
25962;SDS011;13760;52.588;13.406;2024-02-21T13:44:46;12.27;;;5.80;;
25962;SDS011;13760;52.588;13.406;2024-02-21T13:47:15;11.02;;;5.95;;
25962;SDS011;13760;52.588;13.406;2024-02-21T13:49:40;12.43;;;5.63;;
25962;SDS011;13760;52.588;13.406;2024-02-21T13:52:06;11.32;;;5.88;;
25962;SDS011;13760;52.588;13.406;2024-02-21T13:54:32;13.90;;;5.35;;
25962;SDS011;13760;52.588;13.406;2024-02-21T13:56:57;8.00;;;4.72;;
25962;SDS011;13760;52.588;13.406;2024-02-21T13:59:23;11.65;;;5.28;;
25962;SDS011;13760;52.588;13.406;2024-02-21T14:01:51;9.75;;;5.35;;
25962;SDS011;13760;52.588;13.406;2024-02-21T14:04:16;12.50;;;5.53;;
25962;SDS011;13760;52.588;13.406;2024-02-21T14:06:42;13.20;;;5.32;;
25962;SDS011;13760;52.588;13.406;2024-02-21T14:09:11;9.45;;;5.18;;
25962;SDS011;13760;52.588;13.406;2024-02-21T14:11:37;9.38;;;4.95;;
25962;SDS011;13760;52.588;13.406;2024-02-21T14:14:04;10.70;;;5.55;;
25962;SDS011;13760;52.588;13.406;2024-02-21T14:16:30;12.55;;;4.95;;